Time,TemperatureF,DewpointF,PressureIn,WindDirection,WindDirectionDegrees,WindSpeedMPH,WindSpeedGustMPH,Humidity,HourlyPrecipIn,Conditions,Clouds,dailyrainin,SoftwareType,DateUTC
2013-02-11 00:00:00,22.5,14.2,30.00,West,273,0.0,0.0,70,0.00,-RA,OVC,0.00,WeatherDisplay:10.37,2013-02-11 07:00:00,
2013-02-11 00:05:00,22.5,14.5,30.01,West,273,3.5,3.5,71,0.00,-RA,OVC,0.00,WeatherDisplay:10.37,2013-02-11 07:05:00,
2013-02-11 00:10:00,22.4,14.7,30.01,West,273,3.5,3.5,72,0.00,-RA,OVC,0.00,WeatherDisplay:10.37,2013-02-11 07:10:00,
2013-02-11 00:15:00,22.3,15.0,30.01,West,273,2.3,2.3,73,0.00,-RA,OVC,0.00,WeatherDisplay:10.37,2013-02-11 07:15:00,
2013-02-11 00:20:00,22.1,15.4,30.01,West,273,4.6,4.6,75,0.00,-RA,OVC,0.00,WeatherDisplay:10.37,2013-02-11 07:20:00,
2013-02-11 00:25:00,21.9,15.8,30.01,WNW,284,2.3,2.3,77,0.00,-RA,OVC,0.00,WeatherDisplay:10.37,2013-02-11 07:25:00,
2013-02-11 00:30:00,21.7,15.9,30.01,WNW,285,3.5,3.5,78,0.00,-RA,OVC,0.00,WeatherDisplay:10.37,2013-02-11 07:30:00,
2013-02-11 00:35:00,21.6,15.8,30.01,WNW,285,3.5,3.5,78,0.00,-RA,OVC,0.00,WeatherDisplay:10.37,2013-02-11 07:35:00,
2013-02-11 00:40:00,21.5,15.7,30.01,WNW,285,0.0,0.0,78,0.00,-RA,OVC,0.00,WeatherDisplay:10.37,2013-02-11 07:40:00,
2013-02-11 00:45:00,21.4,15.9,30.01,WNW,285,4.0,4.0,79,0.00,-RA,OVC,0.00,WeatherDisplay:10.37,2013-02-11 07:45:00,
2013-02-11 00:50:00,21.3,16.1,30.01,WNW,285,2.3,2.3,80,0.00,-RA,OVC,0.00,WeatherDisplay:10.37,2013-02-11 07:50:00,
2013-02-11 00:55:00,21.3,16.4,30.01,WNW,285,3.5,3.5,81,0.00,-RA,OVC,0.00,WeatherDisplay:10.37,2013-02-11 07:55:00,
2013-02-11 01:00:00,21.3,16.4,30.01,WNW,285,3.5,3.5,81,0.00,-RA,OVC,0.00,WeatherDisplay:10.37,2013-02-11 08:00:00,
2013-02-11 01:05:00,21.1,16.5,30.01,WNW,285,0.0,0.0,82,0.00,-RA,OVC,0.00,WeatherDisplay:10.37,2013-02-11 08:05:00,
2013-02-11 01:10:00,21.1,16.5,30.01,WNW,285,2.3,2.3,82,0.00,-RA,OVC,0.00,WeatherDisplay:10.37,2013-02-11 08:10:00,
2013-02-11 01:15:00,21.0,16.4,30.01,WNW,285,0.0,0.0,82,0.00,-RA,OVC,0.00,WeatherDisplay:10.37,2013-02-11 08:15:00,
2013-02-11 01:20:00,20.9,16.5,30.01,WNW,285,1.0,1.0,83,0.00,-RA,OVC,0.00,WeatherDisplay:10.37,2013-02-11 08:20:00,
2013-02-11 01:25:00,20.9,16.5,30.01,WNW,285,1.1,1.1,83,0.00,-RA,OVC,0.00,WeatherDisplay:10.37,2013-02-11 08:25:00,
2013-02-11 01:30:00,20.7,16.4,30.01,WNW,285,1.1,1.1,83,0.00,-RA,OVC,0.00,WeatherDisplay:10.37,2013-02-11 08:30:00,
2013-02-11 01:35:00,20.6,16.3,30.01,WNW,285,0.0,0.0,83,0.00,-RA,OVC,0.00,WeatherDisplay:10.37,2013-02-11 08:35:00,
2013-02-11 01:40:00,20.6,16.3,30.01,WNW,285,0.0,0.0,83,0.00,-RA,OVC,0.00,WeatherDisplay:10.37,2013-02-11 08:40:00,
2013-02-11 01:45:00,20.4,16.3,30.01,WNW,285,0.0,0.0,84,0.00,-RA,OVC,0.00,WeatherDisplay:10.37,2013-02-11 08:45:00,
2013-02-11 01:50:00,20.3,16.2,30.01,WNW,285,0.0,0.0,84,0.00,-RA,OVC,0.00,WeatherDisplay:10.37,2013-02-11 08:50:00,
2013-02-11 01:55:00,20.2,16.1,30.01,WNW,285,0.0,0.0,84,0.00,-RA,OVC,0.00,WeatherDisplay:10.37,2013-02-11 08:55:00,
2013-02-11 02:00:00,20.1,16.0,30.01,WNW,285,1.1,1.1,84,0.00,-RA,OVC,0.00,WeatherDisplay:10.37,2013-02-11 09:00:00,
2013-02-11 02:05:00,20.0,15.9,30.01,WNW,285,0.0,0.0,84,0.00,-RA,OVC,0.00,WeatherDisplay:10.37,2013-02-11 09:05:00,
2013-02-11 02:10:00,20.0,16.2,30.01,WNW,285,0.0,0.0,85,0.00,-RA,OVC,0.00,WeatherDisplay:10.37,2013-02-11 09:10:00,
2013-02-11 02:15:00,19.8,16.0,30.01,WNW,285,0.0,0.0,85,0.00,-RA,OVC,0.00,WeatherDisplay:10.37,2013-02-11 09:15:00,
2013-02-11 02:20:00,19.7,15.9,30.01,WNW,285,0.0,0.0,85,0.00,-RA,OVC,0.00,WeatherDisplay:10.37,2013-02-11 09:20:00,
2013-02-11 02:25:00,19.5,15.7,30.01,WNW,285,0.0,0.0,85,0.00,-RA,OVC,0.00,WeatherDisplay:10.37,2013-02-11 09:25:00,
2013-02-11 02:30:00,19.4,15.6,30.01,WNW,285,2.3,2.3,85,0.00,-RA,OVC,0.00,WeatherDisplay:10.37,2013-02-11 09:30:00,
2013-02-11 02:35:00,19.2,15.4,30.01,WNW,285,0.0,0.0,85,0.00,-RA,OVC,0.00,WeatherDisplay:10.37,2013-02-11 09:35:00,
2013-02-11 02:40:00,19.0,15.2,30.01,WNW,285,0.0,0.0,85,0.00,-RA,OVC,0.00,WeatherDisplay:10.37,2013-02-11 09:40:00,
2013-02-11 02:45:00,18.8,15.0,30.01,WNW,285,0.0,0.0,85,0.00,-RA,OVC,0.00,WeatherDisplay:10.37,2013-02-11 09:45:00,
2013-02-11 02:50:00,18.7,15.2,30.01,WNW,285,0.0,0.0,86,0.00,-RA,OVC,0.00,WeatherDisplay:10.37,2013-02-11 09:50:00,
2013-02-11 02:55:00,18.5,15.0,30.01,WNW,285,0.0,0.0,86,0.00,-RA,OVC,0.00,WeatherDisplay:10.37,2013-02-11 09:55:00,
2013-02-11 03:00:00,18.3,14.8,30.01,WNW,285,0.0,0.0,86,0.00,-RA,OVC,0.00,WeatherDisplay:10.37,2013-02-11 10:00:00,
2013-02-11 03:05:00,18.2,14.7,30.01,WNW,285,0.0,0.0,86,0.00,-RA,OVC,0.00,WeatherDisplay:10.37,2013-02-11 10:05:00,
2013-02-11 03:10:00,18.1,14.9,30.01,WNW,285,0.0,0.0,87,0.00,-RA,OVC,0.00,WeatherDisplay:10.37,2013-02-11 10:10:00,
2013-02-11 03:15:00,18.0,14.8,30.01,WNW,285,0.0,0.0,87,0.00,-RA,OVC,0.00,WeatherDisplay:10.37,2013-02-11 10:15:00,
2013-02-11 03:20:00,18.0,14.8,30.01,WNW,285,0.0,0.0,87,0.00,-RA,OVC,0.00,WeatherDisplay:10.37,2013-02-11 10:20:00,
2013-02-11 03:25:00,17.9,14.7,30.01,WNW,285,0.0,0.0,87,0.00,-RA,OVC,0.00,WeatherDisplay:10.37,2013-02-11 10:25:00,
2013-02-11 03:30:00,17.9,14.7,30.01,WNW,285,0.0,0.0,87,0.00,-RA,OVC,0.00,WeatherDisplay:10.37,2013-02-11 10:30:00,
2013-02-11 03:35:00,17.9,14.9,30.01,WNW,285,0.0,0.0,88,0.00,-RA,OVC,0.00,WeatherDisplay:10.37,2013-02-11 10:35:00,
2013-02-11 03:40:00,17.9,14.9,30.01,WNW,285,0.0,0.0,88,0.00,-RA,OVC,0.00,WeatherDisplay:10.37,2013-02-11 10:40:00,
2013-02-11 03:45:00,17.9,14.9,30.01,WNW,285,0.0,0.0,88,0.00,-RA,OVC,0.00,WeatherDisplay:10.37,2013-02-11 10:45:00,
2013-02-11 03:50:00,17.9,14.9,30.01,WNW,285,0.0,0.0,88,0.00,-RA,OVC,0.00,WeatherDisplay:10.37,2013-02-11 10:50:00,
2013-02-11 03:55:00,18.0,15.0,29.99,WNW,285,0.0,0.0,88,0.00,-RA,OVC,0.00,WeatherDisplay:10.37,2013-02-11 10:55:00,
2013-02-11 04:00:00,18.1,15.4,29.99,WNW,285,0.0,0.0,89,0.00,-RA,OVC,0.00,WeatherDisplay:10.37,2013-02-11 11:00:00,
2013-02-11 04:05:00,18.2,15.5,29.99,WNW,285,0.0,0.0,89,0.00,-RA,OVC,0.00,WeatherDisplay:10.37,2013-02-11 11:05:00,
2013-02-11 04:10:00,18.4,15.7,29.99,WNW,285,0.0,0.0,89,0.00,-RA,OVC,0.00,WeatherDisplay:10.37,2013-02-11 11:10:00,
2013-02-11 04:15:00,18.4,15.7,29.99,WNW,285,0.0,0.0,89,0.00,-RA,OVC,0.00,WeatherDisplay:10.37,2013-02-11 11:15:00,
2013-02-11 04:20:00,18.5,15.5,29.99,WNW,285,0.0,0.0,88,0.00,-RA,OVC,0.00,WeatherDisplay:10.37,2013-02-11 11:20:00,
2013-02-11 04:25:00,18.4,15.4,29.99,WNW,285,0.0,0.0,88,0.00,-RA,OVC,0.00,WeatherDisplay:10.37,2013-02-11 11:25:00,
2013-02-11 04:30:00,18.4,15.4,29.99,WNW,285,0.0,0.0,88,0.00,-RA,OVC,0.00,WeatherDisplay:10.37,2013-02-11 11:30:00,
2013-02-11 04:35:00,18.3,15.3,29.99,WNW,285,0.0,0.0,88,0.00,-RA,OVC,0.00,WeatherDisplay:10.37,2013-02-11 11:35:00,
2013-02-11 04:40:00,18.2,15.2,29.99,WNW,285,0.0,0.0,88,0.00,-RA,OVC,0.00,WeatherDisplay:10.37,2013-02-11 11:40:00,
2013-02-11 04:45:00,18.1,15.1,29.99,WNW,285,0.0,0.0,88,0.00,-RA,OVC,0.00,WeatherDisplay:10.37,2013-02-11 11:45:00,
2013-02-11 04:50:00,18.0,14.8,29.99,WNW,285,0.0,0.0,87,0.00,-RA,OVC,0.00,WeatherDisplay:10.37,2013-02-11 11:50:00,
2013-02-11 04:55:00,17.8,14.6,29.99,WNW,285,0.0,0.0,87,0.00,-RA,OVC,0.00,WeatherDisplay:10.37,2013-02-11 11:55:00,
2013-02-11 05:00:00,17.6,14.4,29.99,WNW,285,0.0,0.0,87,0.00,-RA,OVC,0.00,WeatherDisplay:10.37,2013-02-11 12:00:00,
2013-02-11 05:05:00,17.6,14.7,29.99,WNW,285,0.0,0.0,88,0.00,-RA,OVC,0.00,WeatherDisplay:10.37,2013-02-11 12:05:00,
2013-02-11 05:10:00,17.6,14.7,29.99,WNW,285,0.0,0.0,88,0.00,-RA,OVC,0.00,WeatherDisplay:10.37,2013-02-11 12:10:00,
2013-02-11 05:15:00,17.6,14.7,29.99,WNW,285,0.0,0.0,88,0.00,-RA,OVC,0.00,WeatherDisplay:10.37,2013-02-11 12:15:00,
2013-02-11 05:20:00,17.5,14.6,29.99,WNW,285,0.0,0.0,88,0.00,-RA,OVC,0.00,WeatherDisplay:10.37,2013-02-11 12:20:00,
2013-02-11 05:25:00,17.5,14.6,29.99,WNW,285,0.0,0.0,88,0.00,-RA,OVC,0.00,WeatherDisplay:10.37,2013-02-11 12:25:00,
2013-02-11 05:30:00,17.5,14.6,29.99,WNW,285,1.1,0.0,88,0.00,-RA,OVC,0.00,WeatherDisplay:10.37,2013-02-11 12:30:00,
2013-02-11 05:35:00,17.6,14.7,29.99,WNW,285,0.0,0.0,88,0.00,-RA,OVC,0.00,WeatherDisplay:10.37,2013-02-11 12:35:00,
2013-02-11 05:40:00,17.7,14.8,29.99,WNW,285,0.0,0.0,88,0.00,-RA,OVC,0.00,WeatherDisplay:10.37,2013-02-11 12:40:00,
2013-02-11 05:45:00,17.9,14.9,29.99,WNW,285,0.0,0.0,88,0.00,-RA,OVC,0.00,WeatherDisplay:10.37,2013-02-11 12:45:00,
2013-02-11 05:50:00,18.0,15.0,29.99,WNW,285,1.1,0.0,88,0.00,-RA,OVC,0.00,WeatherDisplay:10.37,2013-02-11 12:50:00,
2013-02-11 05:55:00,18.1,15.1,29.99,WNW,285,0.0,0.0,88,0.00,-RA,OVC,0.00,WeatherDisplay:10.37,2013-02-11 12:55:00,
2013-02-11 06:00:00,18.1,15.1,29.99,WNW,285,0.0,0.0,88,0.00,-RA,OVC,0.00,WeatherDisplay:10.37,2013-02-11 13:00:00,
2013-02-11 06:05:00,18.2,15.2,29.99,WNW,285,0.0,0.0,88,0.00,-RA,OVC,0.00,WeatherDisplay:10.37,2013-02-11 13:05:00,
2013-02-11 06:10:00,18.4,15.2,29.99,WNW,285,0.0,0.0,87,0.00,-RA,OVC,0.00,WeatherDisplay:10.37,2013-02-11 13:10:00,
2013-02-11 06:15:00,18.5,15.5,29.99,WNW,285,0.0,0.0,88,0.00,-RA,OVC,0.00,WeatherDisplay:10.37,2013-02-11 13:15:00,
2013-02-11 06:20:00,18.6,15.4,29.99,WNW,285,0.0,0.0,87,0.00,-RA,OVC,0.00,WeatherDisplay:10.37,2013-02-11 13:20:00,
2013-02-11 06:25:00,18.6,15.4,29.99,WNW,285,0.0,0.0,87,0.00,-RA,OVC,0.00,WeatherDisplay:10.37,2013-02-11 13:25:00,
2013-02-11 06:30:00,18.6,15.1,29.99,WNW,285,0.0,0.0,86,0.00,-RA,OVC,0.00,WeatherDisplay:10.37,2013-02-11 13:30:00,
2013-02-11 06:35:00,18.7,15.2,29.99,WNW,285,2.3,2.3,86,0.00,-RA,OVC,0.00,WeatherDisplay:10.37,2013-02-11 13:35:00,
2013-02-11 06:40:00,18.7,15.2,29.99,WNW,285,2.3,2.3,86,0.00,-RA,OVC,0.00,WeatherDisplay:10.37,2013-02-11 13:40:00,
2013-02-11 06:45:00,18.8,15.0,29.99,WNW,285,0.0,0.0,85,0.00,-RA,OVC,0.00,WeatherDisplay:10.37,2013-02-11 13:45:00,
2013-02-11 06:50:00,18.8,15.0,29.99,WNW,285,0.0,0.0,85,0.00,-RA,OVC,0.00,WeatherDisplay:10.37,2013-02-11 13:50:00,
2013-02-11 06:55:00,18.8,15.0,29.99,WNW,285,0.0,0.0,85,0.00,-RA,OVC,0.00,WeatherDisplay:10.37,2013-02-11 13:55:00,
2013-02-11 07:00:00,18.9,15.1,29.99,WNW,285,0.0,0.0,85,0.00,-RA,OVC,0.00,WeatherDisplay:10.37,2013-02-11 14:00:00,
2013-02-11 07:05:00,18.9,14.9,29.99,WNW,285,2.3,2.3,84,0.00,-RA,OVC,0.00,WeatherDisplay:10.37,2013-02-11 14:05:00,
2013-02-11 07:10:00,19.0,15.2,29.99,WNW,285,1.1,1.1,85,0.00,-RA,OVC,0.00,WeatherDisplay:10.37,2013-02-11 14:10:00,
2013-02-11 07:15:00,19.1,15.1,29.99,WNW,285,1.1,1.1,84,0.00,-RA,OVC,0.00,WeatherDisplay:10.37,2013-02-11 14:15:00,
2013-02-11 07:20:00,19.1,15.1,29.99,WNW,285,2.0,0.0,84,0.00,-RA,OVC,0.00,WeatherDisplay:10.37,2013-02-11 14:20:00,
2013-02-11 07:25:00,19.1,15.1,29.99,WNW,285,1.1,1.1,84,0.00,-RA,OVC,0.00,WeatherDisplay:10.37,2013-02-11 14:25:00,
2013-02-11 07:30:00,19.2,14.9,29.99,WNW,285,1.1,0.0,83,0.00,-RA,OVC,0.00,WeatherDisplay:10.37,2013-02-11 14:30:00,
2013-02-11 07:35:00,19.3,15.0,29.99,WNW,285,0.0,0.0,83,0.00,-RA,OVC,0.00,WeatherDisplay:10.37,2013-02-11 14:35:00,
2013-02-11 07:40:00,19.3,15.0,29.99,WNW,285,0.0,0.0,83,0.00,-RA,OVC,0.00,WeatherDisplay:10.37,2013-02-11 14:40:00,
2013-02-11 07:45:00,19.5,15.2,29.99,WNW,285,2.3,2.3,83,0.00,-RA,OVC,0.00,WeatherDisplay:10.37,2013-02-11 14:45:00,
2013-02-11 07:50:00,19.6,15.6,29.99,WNW,285,2.3,2.3,84,0.00,-RA,OVC,0.00,WeatherDisplay:10.37,2013-02-11 14:50:00,
2013-02-11 07:55:00,19.8,15.5,29.99,WNW,285,2.3,2.3,83,0.00,-RA,OVC,0.00,WeatherDisplay:10.37,2013-02-11 14:55:00,
2013-02-11 08:00:00,19.9,15.6,29.99,WNW,285,3.5,3.5,83,0.00,-RA,OVC,0.00,WeatherDisplay:10.37,2013-02-11 15:00:00,
2013-02-11 08:05:00,20.0,15.7,29.99,WNW,285,3.5,3.5,83,0.00,-RA,OVC,0.00,WeatherDisplay:10.37,2013-02-11 15:05:00,
2013-02-11 08:10:00,20.4,16.1,29.99,WNW,285,2.3,2.3,83,0.00,-RA,OVC,0.00,WeatherDisplay:10.37,2013-02-11 15:10:00,
2013-02-11 08:15:00,20.6,16.0,29.99,West,281,3.5,3.5,82,0.00,-RA,OVC,0.00,WeatherDisplay:10.37,2013-02-11 15:15:00,
2013-02-11 08:20:00,20.5,15.6,29.99,SW,229,3.5,3.5,81,0.00,-RA,OVC,0.00,WeatherDisplay:10.37,2013-02-11 15:20:00,
2013-02-11 08:25:00,20.5,15.9,29.99,SW,223,3.5,3.5,82,0.00,-RA,OVC,0.00,WeatherDisplay:10.37,2013-02-11 15:25:00,
2013-02-11 08:30:00,20.6,16.0,29.99,SW,221,1.1,0.0,82,0.00,-RA,OVC,0.00,WeatherDisplay:10.37,2013-02-11 15:30:00,
2013-02-11 08:35:00,20.6,15.7,29.99,SSW,210,5.8,5.8,81,0.00,-RA,OVC,0.00,WeatherDisplay:10.37,2013-02-11 15:35:00,
2013-02-11 08:40:00,20.7,15.8,29.99,SSW,204,4.6,4.6,81,0.00,-RA,OVC,0.00,WeatherDisplay:10.37,2013-02-11 15:40:00,
2013-02-11 08:45:00,20.7,16.1,29.99,SSW,204,4.0,4.0,82,0.00,-RA,OVC,0.00,WeatherDisplay:10.37,2013-02-11 15:45:00,
2013-02-11 08:50:00,20.9,16.3,29.99,SSW,203,3.5,3.5,82,0.00,-RA,OVC,0.00,WeatherDisplay:10.37,2013-02-11 15:50:00,
2013-02-11 08:55:00,21.1,16.2,29.99,SSW,203,4.0,4.0,81,0.00,-RA,OVC,0.00,WeatherDisplay:10.37,2013-02-11 15:55:00,
2013-02-11 09:00:00,21.2,16.3,29.99,SSW,200,3.5,3.5,81,0.00,-RA,OVC,0.00,WeatherDisplay:10.37,2013-02-11 16:00:00,
2013-02-11 09:05:00,21.5,16.6,29.99,SSW,200,4.6,4.6,81,0.00,-RA,OVC,0.00,WeatherDisplay:10.37,2013-02-11 16:05:00,
2013-02-11 09:10:00,21.5,16.3,29.99,SSW,200,3.5,3.5,80,0.00,-RA,OVC,0.00,WeatherDisplay:10.37,2013-02-11 16:10:00,
2013-02-11 09:15:00,21.7,16.5,29.99,SSW,200,3.5,3.5,80,0.00,-RA,OVC,0.00,WeatherDisplay:10.37,2013-02-11 16:15:00,
2013-02-11 09:20:00,21.7,16.2,29.99,SSW,198,3.5,3.5,79,0.00,-RA,OVC,0.00,WeatherDisplay:10.37,2013-02-11 16:20:00,
2013-02-11 09:25:00,21.9,16.4,29.99,SSW,193,3.5,3.5,79,0.00,-RA,OVC,0.00,WeatherDisplay:10.37,2013-02-11 16:25:00,
2013-02-11 09:30:00,22.0,16.2,29.99,SSW,194,3.5,3.5,78,0.00,-RA,OVC,0.00,WeatherDisplay:10.37,2013-02-11 16:30:00,
2013-02-11 09:35:00,22.0,16.2,29.99,SSW,194,3.5,3.5,78,0.00,-RA,OVC,0.00,WeatherDisplay:10.37,2013-02-11 16:35:00,
2013-02-11 09:40:00,22.0,15.9,29.99,SSW,197,2.3,2.3,77,0.00,-RA,OVC,0.00,WeatherDisplay:10.37,2013-02-11 16:40:00,
2013-02-11 09:45:00,22.2,16.4,29.99,SSW,199,3.5,3.5,78,0.00,-RA,OVC,0.00,WeatherDisplay:10.37,2013-02-11 16:45:00,
2013-02-11 09:50:00,22.2,16.4,29.99,SSW,200,3.5,3.5,78,0.00,-RA,OVC,0.00,WeatherDisplay:10.37,2013-02-11 16:50:00,
2013-02-11 09:55:00,22.2,16.1,29.99,SSW,205,3.5,3.5,77,0.00,-RA,OVC,0.00,WeatherDisplay:10.37,2013-02-11 16:55:00,
2013-02-11 10:00:00,22.2,16.1,29.99,SSW,204,2.3,2.3,77,0.00,-RA,OVC,0.00,WeatherDisplay:10.37,2013-02-11 17:00:00,
2013-02-11 10:05:00,22.0,15.6,29.99,SSW,202,1.1,1.1,76,0.00,-RA,OVC,0.00,WeatherDisplay:10.37,2013-02-11 17:05:00,
2013-02-11 10:10:00,22.1,15.7,29.99,SSW,202,2.3,2.3,76,0.00,-RA,OVC,0.00,WeatherDisplay:10.37,2013-02-11 17:10:00,
2013-02-11 10:15:00,22.2,15.2,29.99,SSW,202,3.5,3.5,74,0.00,-RA,OVC,0.00,WeatherDisplay:10.37,2013-02-11 17:15:00,
2013-02-11 10:20:00,22.3,15.6,29.99,SSW,202,2.3,2.3,75,0.00,-RA,OVC,0.00,WeatherDisplay:10.37,2013-02-11 17:20:00,
2013-02-11 10:25:00,22.5,15.8,29.99,SSW,202,2.3,2.3,75,0.00,-RA,OVC,0.00,WeatherDisplay:10.37,2013-02-11 17:25:00,
2013-02-11 10:30:00,22.7,16.0,29.99,SSW,202,1.0,1.0,75,0.00,-RA,OVC,0.00,WeatherDisplay:10.37,2013-02-11 17:30:00,
2013-02-11 10:35:00,22.9,15.8,29.99,SSW,202,1.1,0.0,74,0.00,-RA,OVC,0.00,WeatherDisplay:10.37,2013-02-11 17:35:00,
2013-02-11 10:40:00,23.1,15.7,29.99,SSW,202,1.1,0.0,73,0.00,-RA,OVC,0.00,WeatherDisplay:10.37,2013-02-11 17:40:00,
2013-02-11 10:45:00,23.2,15.8,29.99,South,173,4.6,4.6,73,0.00,-RA,OVC,0.00,WeatherDisplay:10.37,2013-02-11 17:45:00,
2013-02-11 10:50:00,23.1,15.1,29.99,SSE,167,3.5,3.5,71,0.00,-RA,OVC,0.00,WeatherDisplay:10.37,2013-02-11 17:50:00,
2013-02-11 10:55:00,23.1,15.4,29.99,South,170,4.0,4.0,72,0.00,-RA,OVC,0.00,WeatherDisplay:10.37,2013-02-11 17:55:00,
2013-02-11 11:00:00,23.1,15.1,29.99,South,171,3.5,3.5,71,0.00,-RA,OVC,0.00,WeatherDisplay:10.37,2013-02-11 18:00:00,
2013-02-11 11:05:00,23.4,15.4,29.99,South,170,3.5,3.5,71,0.00,-RA,OVC,0.00,WeatherDisplay:10.37,2013-02-11 18:05:00,
2013-02-11 11:10:00,23.5,15.8,29.99,South,170,3.5,3.5,72,0.00,-RA,OVC,0.00,WeatherDisplay:10.37,2013-02-11 18:10:00,
2013-02-11 11:15:00,23.7,15.0,29.99,South,171,2.0,2.0,69,0.00,-RA,OVC,0.00,WeatherDisplay:10.37,2013-02-11 18:15:00,
2013-02-11 11:20:00,23.8,15.1,29.99,South,170,1.1,1.1,69,0.00,-RA,OVC,0.00,WeatherDisplay:10.37,2013-02-11 18:20:00,
2013-02-11 11:25:00,23.9,15.2,29.99,South,172,2.3,2.3,69,0.00,-RA,OVC,0.00,WeatherDisplay:10.37,2013-02-11 18:25:00,
2013-02-11 11:30:00,24.1,15.4,29.99,South,172,0.0,0.0,69,0.00,-RA,OVC,0.00,WeatherDisplay:10.37,2013-02-11 18:30:00,
2013-02-11 11:35:00,24.3,15.3,29.99,South,169,3.5,3.5,68,0.00,-RA,OVC,0.00,WeatherDisplay:10.37,2013-02-11 18:35:00,
2013-02-11 11:40:00,24.3,14.9,29.99,South,171,3.5,3.5,67,0.00,-RA,OVC,0.00,WeatherDisplay:10.37,2013-02-11 18:40:00,
2013-02-11 11:45:00,24.5,15.8,29.99,South,171,0.0,0.0,69,0.00,-RA,OVC,0.00,WeatherDisplay:10.37,2013-02-11 18:45:00,
2013-02-11 11:50:00,24.6,15.2,29.99,South,173,1.1,0.0,67,0.00,-RA,OVC,0.00,WeatherDisplay:10.37,2013-02-11 18:50:00,
2013-02-11 11:55:00,24.9,15.8,29.99,South,172,3.5,3.5,68,0.00,-RA,OVC,0.00,WeatherDisplay:10.37,2013-02-11 18:55:00,
2013-02-11 12:00:00,25.1,15.3,29.99,South,173,3.5,3.5,66,0.00,-RA,OVC,0.00,WeatherDisplay:10.37,2013-02-11 19:00:00,
2013-02-11 12:05:00,25.1,15.3,29.99,South,173,0.0,0.0,66,0.00,-RA,OVC,0.00,WeatherDisplay:10.37,2013-02-11 19:05:00,
2013-02-11 12:10:00,25.4,15.6,29.99,NE,53,3.5,3.5,66,0.00,-RA,OVC,0.00,WeatherDisplay:10.37,2013-02-11 19:10:00,
2013-02-11 12:15:00,25.5,15.7,29.99,WNW,303,3.5,3.5,66,0.00,-RA,OVC,0.00,WeatherDisplay:10.37,2013-02-11 19:15:00,
2013-02-11 12:20:00,25.6,16.2,29.99,South,184,5.8,5.8,67,0.00,-RA,OVC,0.00,WeatherDisplay:10.37,2013-02-11 19:20:00,
2013-02-11 12:25:00,25.5,15.7,29.99,South,191,11.5,11.5,66,0.00,-RA,OVC,0.00,WeatherDisplay:10.37,2013-02-11 19:25:00,
2013-02-11 12:30:00,25.4,15.6,29.99,SSW,193,2.3,2.3,66,0.00,-RA,OVC,0.00,WeatherDisplay:10.37,2013-02-11 19:30:00,
2013-02-11 12:35:00,25.6,15.8,29.99,SSW,192,3.5,3.5,66,0.00,-RA,OVC,0.00,WeatherDisplay:10.37,2013-02-11 19:35:00,
2013-02-11 12:40:00,25.6,15.1,29.99,SSW,192,2.3,2.3,64,0.00,-RA,OVC,0.00,WeatherDisplay:10.37,2013-02-11 19:40:00,
2013-02-11 12:45:00,25.5,15.7,29.99,South,184,5.8,5.8,66,0.00,-RA,OVC,0.00,WeatherDisplay:10.37,2013-02-11 19:45:00,
2013-02-11 12:50:00,25.7,15.9,29.99,South,188,5.8,5.8,66,0.00,-RA,OVC,0.00,WeatherDisplay:10.37,2013-02-11 19:50:00,
2013-02-11 12:55:00,26.1,16.3,29.99,SW,217,6.9,6.9,66,0.00,-RA,OVC,0.00,WeatherDisplay:10.37,2013-02-11 19:55:00,
2013-02-11 13:00:00,26.6,16.8,29.99,SSE,153,8.1,8.1,66,0.00,-RA,OVC,0.00,WeatherDisplay:10.37,2013-02-11 20:00:00,
2013-02-11 13:05:00,26.6,16.1,29.95,SSE,148,5.8,5.8,64,0.00,-RA,OVC,0.00,WeatherDisplay:10.37,2013-02-11 20:05:00,
2013-02-11 13:10:00,26.9,17.4,29.95,South,181,7.0,7.0,67,0.00,-RA,OVC,0.00,WeatherDisplay:10.37,2013-02-11 20:10:00,
2013-02-11 13:15:00,26.8,16.2,29.95,South,181,5.8,5.8,64,0.00,-RA,OVC,0.00,WeatherDisplay:10.37,2013-02-11 20:15:00,
2013-02-11 13:20:00,26.6,16.1,29.95,SSE,159,11.5,11.5,64,0.00,-RA,OVC,0.00,WeatherDisplay:10.37,2013-02-11 20:20:00,
2013-02-11 13:25:00,26.5,16.0,29.95,South,178,10.4,10.4,64,0.00,-RA,OVC,0.00,WeatherDisplay:10.37,2013-02-11 20:25:00,
2013-02-11 13:30:00,27.1,16.2,29.95,ESE,123,6.9,6.9,63,0.00,-RA,OVC,0.00,WeatherDisplay:10.37,2013-02-11 20:30:00,
2013-02-11 13:35:00,27.4,15.7,29.95,SE,126,11.5,11.5,61,0.00,-RA,OVC,0.00,WeatherDisplay:10.37,2013-02-11 20:35:00,
2013-02-11 13:40:00,27.4,15.3,29.95,SSE,165,11.5,11.5,60,0.00,-RA,OVC,0.00,WeatherDisplay:10.37,2013-02-11 20:40:00,
2013-02-11 13:45:00,27.2,15.1,29.95,SSW,200,10.0,10.0,60,0.00,-RA,OVC,0.00,WeatherDisplay:10.37,2013-02-11 20:45:00,
2013-02-11 13:50:00,27.1,15.4,29.95,ESE,116,5.0,5.0,61,0.00,-RA,OVC,0.00,WeatherDisplay:10.37,2013-02-11 20:50:00,
2013-02-11 13:55:00,26.9,15.2,29.95,ESE,121,3.5,3.5,61,0.00,-RA,OVC,0.00,WeatherDisplay:10.37,2013-02-11 20:55:00,
2013-02-11 14:00:00,27.2,15.1,29.95,SSE,157,8.1,8.1,60,0.00,-RA,OVC,0.00,WeatherDisplay:10.37,2013-02-11 21:00:00,
2013-02-11 14:05:00,27.2,15.1,29.95,SSE,160,4.6,4.6,60,0.00,-RA,OVC,0.00,WeatherDisplay:10.37,2013-02-11 21:05:00,
2013-02-11 14:10:00,27.2,15.1,29.95,South,173,3.5,3.5,60,0.00,-RA,OVC,0.00,WeatherDisplay:10.37,2013-02-11 21:10:00,
2013-02-11 14:15:00,27.3,15.2,29.95,South,173,3.5,3.5,60,0.00,-RA,OVC,0.00,WeatherDisplay:10.37,2013-02-11 21:15:00,
2013-02-11 14:20:00,27.5,15.0,29.95,South,169,3.5,3.5,59,0.00,-RA,OVC,0.00,WeatherDisplay:10.37,2013-02-11 21:20:00,
2013-02-11 14:25:00,27.6,14.7,29.95,SSE,167,3.5,3.5,58,0.00,-RA,OVC,0.00,WeatherDisplay:10.37,2013-02-11 21:25:00,
2013-02-11 14:30:00,27.2,14.4,29.95,South,187,6.9,6.9,58,0.00,-RA,OVC,0.00,WeatherDisplay:10.37,2013-02-11 21:30:00,
2013-02-11 14:35:00,27.2,14.8,29.93,South,169,3.5,3.5,59,0.00,-RA,OVC,0.00,WeatherDisplay:10.37,2013-02-11 21:35:00,
2013-02-11 14:40:00,27.2,14.8,29.93,SSE,167,0.0,0.6,59,0.00,-RA,OVC,0.00,WeatherDisplay:10.37,2013-02-11 21:40:00,
2013-02-11 14:45:00,27.3,15.6,29.93,SE,132,5.0,5.0,61,0.00,-RA,OVC,0.00,WeatherDisplay:10.37,2013-02-11 21:45:00,
2013-02-11 14:50:00,27.6,15.9,29.93,SSE,148,3.5,3.5,61,0.00,-RA,OVC,0.00,WeatherDisplay:10.37,2013-02-11 21:50:00,
2013-02-11 14:55:00,27.4,14.9,29.93,South,174,4.6,4.6,59,0.00,-RA,OVC,0.00,WeatherDisplay:10.37,2013-02-11 21:55:00,
2013-02-11 15:00:00,27.3,14.8,29.93,South,175,3.5,3.5,59,0.00,-RA,OVC,0.00,WeatherDisplay:10.37,2013-02-11 22:00:00,
2013-02-11 15:05:00,27.1,14.7,29.93,South,182,4.6,4.6,59,0.00,-RA,OVC,0.00,WeatherDisplay:10.37,2013-02-11 22:05:00,
2013-02-11 15:10:00,27.1,15.0,29.93,South,182,3.5,3.5,60,0.00,-RA,OVC,0.00,WeatherDisplay:10.37,2013-02-11 22:10:00,
2013-02-11 15:15:00,27.4,15.3,29.93,South,188,3.5,3.5,60,0.00,-RA,OVC,0.00,WeatherDisplay:10.37,2013-02-11 22:15:00,
2013-02-11 15:20:00,27.5,15.8,29.93,SE,144,2.3,2.3,61,0.00,-RA,OVC,0.00,WeatherDisplay:10.37,2013-02-11 22:20:00,
2013-02-11 15:25:00,27.4,15.7,29.93,South,191,3.5,3.5,61,0.00,-RA,OVC,0.00,WeatherDisplay:10.37,2013-02-11 22:25:00,
2013-02-11 15:30:00,27.4,15.7,29.93,South,177,3.5,3.5,61,0.00,-RA,OVC,0.00,WeatherDisplay:10.37,2013-02-11 22:30:00,
2013-02-11 15:35:00,27.2,15.9,29.93,SSW,194,5.8,5.8,62,0.00,-RA,OVC,0.00,WeatherDisplay:10.37,2013-02-11 22:35:00,
2013-02-11 15:40:00,27.2,15.9,29.93,South,186,3.5,3.5,62,0.00,-RA,OVC,0.00,WeatherDisplay:10.37,2013-02-11 22:40:00,
2013-02-11 15:45:00,27.2,15.9,29.93,ESE,122,2.3,2.3,62,0.00,-RA,OVC,0.00,WeatherDisplay:10.37,2013-02-11 22:45:00,
2013-02-11 15:50:00,27.1,15.4,29.93,South,177,3.5,3.5,61,0.00,-RA,OVC,0.00,WeatherDisplay:10.37,2013-02-11 22:50:00,
2013-02-11 15:55:00,27.1,15.4,29.93,South,182,9.0,9.0,61,0.00,-RA,OVC,0.00,WeatherDisplay:10.37,2013-02-11 22:55:00,
2013-02-11 16:00:00,26.9,15.6,29.93,SSE,163,6.9,6.9,62,0.00,-RA,OVC,0.00,WeatherDisplay:10.37,2013-02-11 23:00:00,
2013-02-11 16:05:00,26.9,16.3,29.93,South,173,3.5,3.5,64,0.00,-RA,OVC,0.00,WeatherDisplay:10.37,2013-02-11 23:05:00,
2013-02-11 16:10:00,26.7,16.5,29.93,South,183,5.8,5.8,65,0.00,-RA,OVC,0.00,WeatherDisplay:10.37,2013-02-11 23:10:00,
2013-02-11 16:15:00,26.6,16.8,29.93,SSE,155,3.5,3.5,66,0.00,-RA,OVC,0.00,WeatherDisplay:10.37,2013-02-11 23:15:00,
2013-02-11 16:20:00,26.6,16.4,29.93,South,175,3.5,3.5,65,0.00,-RA,OVC,0.00,WeatherDisplay:10.37,2013-02-11 23:20:00,
2013-02-11 16:25:00,26.6,16.4,29.93,South,183,3.5,3.6,65,0.00,-RA,OVC,0.00,WeatherDisplay:10.37,2013-02-11 23:25:00,
2013-02-11 16:30:00,26.5,16.3,29.93,South,184,3.5,3.5,65,0.00,-RA,OVC,0.00,WeatherDisplay:10.37,2013-02-11 23:30:00,
2013-02-11 16:35:00,26.4,16.2,29.93,South,178,4.6,4.6,65,0.00,-RA,OVC,0.00,WeatherDisplay:10.37,2013-02-11 23:35:00,
2013-02-11 16:40:00,26.4,16.2,29.93,SE,139,9.2,9.2,65,0.00,-RA,OVC,0.00,WeatherDisplay:10.37,2013-02-11 23:40:00,
2013-02-11 16:45:00,26.4,15.9,29.93,South,189,9.2,9.2,64,0.00,-RA,OVC,0.00,WeatherDisplay:10.37,2013-02-11 23:45:00,
2013-02-11 16:50:00,26.2,15.7,29.93,South,173,4.6,4.6,64,0.00,-RA,OVC,0.00,WeatherDisplay:10.37,2013-02-11 23:50:00,
2013-02-11 16:55:00,26.2,15.3,29.93,SSE,167,4.6,4.6,63,0.00,-RA,OVC,0.00,WeatherDisplay:10.37,2013-02-11 23:55:00,
2013-02-11 17:00:00,26.1,15.2,29.93,SSE,149,4.6,4.6,63,0.00,-RA,OVC,0.00,WeatherDisplay:10.37,2013-02-12 00:00:00,
2013-02-11 17:05:00,26.0,15.1,29.93,South,173,4.6,4.6,63,0.00,-RA,OVC,0.00,WeatherDisplay:10.37,2013-02-12 00:05:00,
2013-02-11 17:10:00,26.1,15.2,29.93,South,187,4.6,4.6,63,0.00,-RA,OVC,0.00,WeatherDisplay:10.37,2013-02-12 00:10:00,
2013-02-11 17:15:00,26.0,15.1,29.93,SSE,150,4.6,4.6,63,0.00,-RA,OVC,0.00,WeatherDisplay:10.37,2013-02-12 00:15:00,
2013-02-11 17:20:00,26.0,15.1,29.93,ESE,119,3.5,3.5,63,0.00,-RA,OVC,0.00,WeatherDisplay:10.37,2013-02-12 00:20:00,
2013-02-11 17:25:00,25.9,15.0,29.93,SE,138,4.6,4.6,63,0.00,-RA,OVC,0.00,WeatherDisplay:10.37,2013-02-12 00:25:00,
2013-02-11 17:30:00,26.0,14.8,29.93,SE,134,3.5,3.5,62,0.00,-RA,OVC,0.00,WeatherDisplay:10.37,2013-02-12 00:30:00,
2013-02-11 17:35:00,26.0,15.1,29.93,SE,136,3.5,3.5,63,0.00,-RA,OVC,0.00,WeatherDisplay:10.37,2013-02-12 00:35:00,
2013-02-11 17:40:00,25.9,15.0,29.93,SE,134,3.5,3.5,63,0.00,-RA,OVC,0.00,WeatherDisplay:10.37,2013-02-12 00:40:00,
2013-02-11 17:45:00,26.0,15.1,29.93,SE,135,3.5,3.5,63,0.00,-RA,OVC,0.00,WeatherDisplay:10.37,2013-02-12 00:45:00,
2013-02-11 17:50:00,26.0,15.1,29.93,SE,135,0.0,0.0,63,0.00,-RA,OVC,0.00,WeatherDisplay:10.37,2013-02-12 00:50:00,
2013-02-11 17:55:00,26.0,15.1,29.93,SE,135,0.0,0.0,63,0.00,-RA,OVC,0.00,WeatherDisplay:10.37,2013-02-12 00:55:00,
2013-02-11 18:00:00,26.1,15.2,29.93,SE,132,2.3,0.0,63,0.00,-RA,OVC,0.00,WeatherDisplay:10.37,2013-02-12 01:00:00,
2013-02-11 18:05:00,26.1,15.6,29.93,SE,132,2.3,2.3,64,0.00,-RA,OVC,0.00,WeatherDisplay:10.37,2013-02-12 01:05:00,
2013-02-11 18:10:00,26.1,15.6,29.93,SE,132,0.0,0.0,64,0.00,-RA,OVC,0.00,WeatherDisplay:10.37,2013-02-12 01:10:00,
2013-02-11 18:15:00,26.0,15.5,29.93,SE,132,1.1,0.0,64,0.00,-RA,OVC,0.00,WeatherDisplay:10.37,2013-02-12 01:15:00,
2013-02-11 18:20:00,26.0,15.5,29.93,SE,132,0.0,0.0,64,0.00,-RA,OVC,0.00,WeatherDisplay:10.37,2013-02-12 01:20:00,
2013-02-11 18:25:00,25.9,15.7,29.93,SE,132,2.3,2.3,65,0.00,-RA,OVC,0.00,WeatherDisplay:10.37,2013-02-12 01:25:00,
2013-02-11 18:30:00,25.9,15.7,29.93,SE,132,0.0,0.0,65,0.00,-RA,OVC,0.00,WeatherDisplay:10.37,2013-02-12 01:30:00,
2013-02-11 18:35:00,25.8,15.6,29.93,SE,132,0.0,0.0,65,0.00,-RA,OVC,0.00,WeatherDisplay:10.37,2013-02-12 01:35:00,
2013-02-11 18:40:00,25.7,15.9,29.93,SE,132,0.0,0.0,66,0.00,-RA,OVC,0.00,WeatherDisplay:10.37,2013-02-12 01:40:00,
2013-02-11 18:45:00,25.6,16.2,29.93,SE,132,0.0,0.0,67,0.00,-RA,OVC,0.00,WeatherDisplay:10.37,2013-02-12 01:45:00,
2013-02-11 18:50:00,25.6,16.2,29.93,SE,132,0.0,0.0,67,0.00,-RA,OVC,0.00,WeatherDisplay:10.37,2013-02-12 01:50:00,
2013-02-11 18:55:00,25.5,16.1,29.93,SE,132,0.0,0.0,67,0.00,-RA,OVC,0.00,WeatherDisplay:10.37,2013-02-12 01:55:00,
2013-02-11 19:00:00,25.4,16.0,29.93,SE,132,0.0,0.0,67,0.00,-RA,OVC,0.00,WeatherDisplay:10.37,2013-02-12 02:00:00,
2013-02-11 19:05:00,25.4,16.3,29.98,SE,132,0.0,0.0,68,0.00,-RA,OVC,0.00,WeatherDisplay:10.37,2013-02-12 02:05:00,
2013-02-11 19:10:00,25.3,16.2,29.98,SE,132,0.0,0.0,68,0.00,-RA,OVC,0.00,WeatherDisplay:10.37,2013-02-12 02:10:00,
2013-02-11 19:15:00,25.2,16.1,29.98,SE,132,0.0,0.0,68,0.00,-RA,OVC,0.00,WeatherDisplay:10.37,2013-02-12 02:15:00,
2013-02-11 19:20:00,25.1,16.4,29.98,SE,132,0.0,0.0,69,0.00,-RA,OVC,0.00,WeatherDisplay:10.37,2013-02-12 02:20:00,
2013-02-11 19:25:00,25.0,16.3,29.98,SE,132,0.0,0.0,69,0.00,-RA,OVC,0.00,WeatherDisplay:10.37,2013-02-12 02:25:00,
2013-02-11 19:30:00,25.0,16.3,29.98,SE,132,0.0,0.0,69,0.00,-RA,OVC,0.00,WeatherDisplay:10.37,2013-02-12 02:30:00,
2013-02-11 19:35:00,24.8,16.1,29.98,SE,132,0.0,0.0,69,0.00,-RA,OVC,0.00,WeatherDisplay:10.37,2013-02-12 02:35:00,
2013-02-11 19:40:00,24.6,15.9,29.98,SE,132,0.0,0.0,69,0.00,-RA,OVC,0.00,WeatherDisplay:10.37,2013-02-12 02:40:00,
2013-02-11 19:45:00,24.4,16.0,29.98,SE,132,0.0,0.0,70,0.00,-RA,OVC,0.00,WeatherDisplay:10.37,2013-02-12 02:45:00,
2013-02-11 19:50:00,24.3,16.2,29.98,SE,132,0.0,0.0,71,0.00,-RA,OVC,0.00,WeatherDisplay:10.37,2013-02-12 02:50:00,
2013-02-11 19:55:00,24.2,16.5,29.98,SE,132,0.0,0.0,72,0.00,-RA,OVC,0.00,WeatherDisplay:10.37,2013-02-12 02:55:00,
2013-02-11 20:00:00,24.0,16.0,29.98,SE,132,0.0,0.0,71,0.00,-RA,OVC,0.00,WeatherDisplay:10.37,2013-02-12 03:00:00,
2013-02-11 20:05:00,23.8,15.8,29.98,SE,132,0.0,0.0,71,0.00,-RA,OVC,0.00,WeatherDisplay:10.37,2013-02-12 03:05:00,
2013-02-11 20:10:00,23.7,16.3,29.98,SE,132,0.0,0.0,73,0.00,-RA,OVC,0.00,WeatherDisplay:10.37,2013-02-12 03:10:00,
2013-02-11 20:15:00,23.5,16.1,29.98,SE,132,0.0,0.0,73,0.00,-RA,OVC,0.00,WeatherDisplay:10.37,2013-02-12 03:15:00,
2013-02-11 20:20:00,23.5,16.4,29.98,SE,132,0.0,0.0,74,0.00,-RA,OVC,0.00,WeatherDisplay:10.37,2013-02-12 03:20:00,
2013-02-11 20:25:00,23.5,16.7,29.98,SE,132,0.0,0.0,75,0.00,-RA,OVC,0.00,WeatherDisplay:10.37,2013-02-12 03:25:00,
2013-02-11 20:30:00,23.5,16.7,29.98,SE,132,0.0,0.0,75,0.00,-RA,OVC,0.00,WeatherDisplay:10.37,2013-02-12 03:30:00,
2013-02-11 20:35:00,23.5,16.7,29.98,SE,132,0.0,0.0,75,0.00,-RA,OVC,0.00,WeatherDisplay:10.37,2013-02-12 03:35:00,
2013-02-11 20:40:00,23.4,16.6,29.98,SE,132,0.0,0.0,75,0.00,-RA,OVC,0.00,WeatherDisplay:10.37,2013-02-12 03:40:00,
2013-02-11 20:45:00,23.3,16.5,29.98,SE,132,0.0,0.0,75,0.00,-RA,OVC,0.00,WeatherDisplay:10.37,2013-02-12 03:45:00,
2013-02-11 20:50:00,23.2,16.8,29.98,SE,132,0.0,0.0,76,0.00,-RA,OVC,0.00,WeatherDisplay:10.37,2013-02-12 03:50:00,
2013-02-11 20:55:00,23.3,17.2,29.98,SE,132,0.0,0.0,77,0.00,-RA,OVC,0.00,WeatherDisplay:10.37,2013-02-12 03:55:00,
2013-02-11 21:00:00,23.3,17.2,29.98,SE,132,0.0,0.0,77,0.00,-RA,OVC,0.00,WeatherDisplay:10.37,2013-02-12 04:00:00,
2013-02-11 21:05:00,23.3,17.2,29.98,SE,132,0.0,0.0,77,0.00,-RA,OVC,0.00,WeatherDisplay:10.37,2013-02-12 04:05:00,
2013-02-11 21:10:00,23.3,17.2,29.98,SE,132,0.0,0.0,77,0.00,-RA,OVC,0.00,WeatherDisplay:10.37,2013-02-12 04:10:00,
2013-02-11 21:15:00,23.2,17.1,29.98,SE,132,0.0,0.0,77,0.00,-RA,OVC,0.00,WeatherDisplay:10.37,2013-02-12 04:15:00,
2013-02-11 21:20:00,23.1,17.0,29.98,SE,132,0.0,0.0,77,0.00,-RA,OVC,0.00,WeatherDisplay:10.37,2013-02-12 04:20:00,
2013-02-11 21:25:00,23.0,16.9,29.98,SE,132,0.0,0.0,77,0.00,-RA,OVC,0.00,WeatherDisplay:10.37,2013-02-12 04:25:00,
2013-02-11 21:30:00,22.9,17.1,29.98,SE,132,0.0,0.0,78,0.00,-RA,OVC,0.00,WeatherDisplay:10.37,2013-02-12 04:30:00,
2013-02-11 21:35:00,22.8,17.0,29.98,SE,132,0.0,0.0,78,0.00,-RA,OVC,0.00,WeatherDisplay:10.37,2013-02-12 04:35:00,
2013-02-11 21:40:00,22.8,17.0,29.98,SE,132,0.0,0.0,78,0.00,-RA,OVC,0.00,WeatherDisplay:10.37,2013-02-12 04:40:00,
2013-02-11 21:45:00,22.8,17.0,29.98,SE,132,0.0,0.0,78,0.00,-RA,OVC,0.00,WeatherDisplay:10.37,2013-02-12 04:45:00,
2013-02-11 21:50:00,22.7,16.9,29.98,SE,132,0.0,0.0,78,0.00,-RA,OVC,0.00,WeatherDisplay:10.37,2013-02-12 04:50:00,
2013-02-11 21:55:00,22.7,16.9,29.98,SE,132,0.0,0.0,78,0.00,-RA,OVC,0.00,WeatherDisplay:10.37,2013-02-12 04:55:00,
2013-02-11 22:00:00,22.5,16.4,29.98,SE,132,0.0,0.0,77,0.00,-RA,OVC,0.00,WeatherDisplay:10.37,2013-02-12 05:00:00,
2013-02-11 22:05:00,22.4,16.6,29.98,SE,132,0.0,0.0,78,0.00,-RA,OVC,0.00,WeatherDisplay:10.37,2013-02-12 05:05:00,
2013-02-11 22:10:00,22.1,16.0,29.98,SE,132,0.0,0.0,77,0.00,-RA,OVC,0.00,WeatherDisplay:10.37,2013-02-12 05:10:00,
2013-02-11 22:15:00,21.8,15.7,29.98,SE,132,0.0,0.0,77,0.00,-RA,OVC,0.00,WeatherDisplay:10.37,2013-02-12 05:15:00,
2013-02-11 22:20:00,21.6,15.5,29.98,SE,132,0.0,0.0,77,0.00,-RA,OVC,0.00,WeatherDisplay:10.37,2013-02-12 05:20:00,
2013-02-11 22:25:00,21.3,15.2,29.98,SE,132,0.0,0.0,77,0.00,-RA,OVC,0.00,WeatherDisplay:10.37,2013-02-12 05:25:00,
2013-02-11 22:30:00,21.1,15.3,29.98,SE,132,0.0,0.0,78,0.00,-RA,OVC,0.00,WeatherDisplay:10.37,2013-02-12 05:30:00,
2013-02-11 22:35:00,20.8,15.0,29.98,SE,132,0.0,0.0,78,0.00,-RA,OVC,0.00,WeatherDisplay:10.37,2013-02-12 05:35:00,
2013-02-11 22:40:00,20.6,14.8,29.98,SE,132,0.0,0.0,78,0.00,-RA,OVC,0.00,WeatherDisplay:10.37,2013-02-12 05:40:00,
2013-02-11 22:45:00,20.3,14.5,29.98,SE,132,0.0,0.0,78,0.00,-RA,OVC,0.00,WeatherDisplay:10.37,2013-02-12 05:45:00,
2013-02-11 22:50:00,20.1,14.3,29.98,SE,132,0.0,0.0,78,0.00,-RA,OVC,0.00,WeatherDisplay:10.37,2013-02-12 05:50:00,
2013-02-11 22:55:00,19.8,14.0,29.98,SE,132,0.0,0.0,78,0.00,-RA,OVC,0.00,WeatherDisplay:10.37,2013-02-12 05:55:00,
2013-02-11 23:00:00,19.7,14.0,29.98,SE,132,0.0,0.0,78,0.00,-RA,OVC,0.00,WeatherDisplay:10.37,2013-02-12 06:00:00,
2013-02-11 23:05:00,19.4,13.7,29.98,SE,132,0.0,0.0,78,0.00,-RA,OVC,0.00,WeatherDisplay:10.37,2013-02-12 06:05:00,
2013-02-11 23:10:00,19.3,13.9,29.98,SE,132,0.0,0.0,79,0.00,-RA,OVC,0.00,WeatherDisplay:10.37,2013-02-12 06:10:00,
2013-02-11 23:15:00,19.2,13.5,29.98,SE,132,0.0,0.0,78,0.00,-RA,OVC,0.00,WeatherDisplay:10.37,2013-02-12 06:15:00,
2013-02-11 23:20:00,19.0,13.3,29.98,SE,132,0.0,0.0,78,0.00,-RA,OVC,0.00,WeatherDisplay:10.37,2013-02-12 06:20:00,
2013-02-11 23:25:00,18.8,13.1,29.98,SE,132,0.0,0.0,78,0.00,-RA,OVC,0.00,WeatherDisplay:10.37,2013-02-12 06:25:00,
2013-02-11 23:30:00,18.5,13.1,29.98,SE,132,0.0,0.0,79,0.00,-RA,OVC,0.00,WeatherDisplay:10.37,2013-02-12 06:30:00,
2013-02-11 23:35:00,18.3,12.9,29.98,SE,132,0.0,0.0,79,0.00,-RA,OVC,0.00,WeatherDisplay:10.37,2013-02-12 06:35:00,
2013-02-11 23:40:00,18.1,12.7,29.98,SE,132,0.0,0.0,79,0.00,-RA,OVC,0.00,WeatherDisplay:10.37,2013-02-12 06:40:00,
2013-02-11 23:45:00,17.9,12.5,29.98,SE,132,0.0,0.0,79,0.00,-RA,OVC,0.00,WeatherDisplay:10.37,2013-02-12 06:45:00,
2013-02-11 23:50:00,17.7,12.6,29.98,SE,132,0.0,0.0,80,0.00,-RA,OVC,0.00,WeatherDisplay:10.37,2013-02-12 06:50:00,
2013-02-11 23:55:00,17.5,12.4,29.98,SE,132,0.0,0.0,80,0.00,-RA,OVC,0.00,WeatherDisplay:10.37,2013-02-12 06:55:00,